Time;durP1;ratioP1;P1;durP2;ratioP2;P2;SDS_P1;SDS_P2;PMS_P1;PMS_P2;Temp;Humidity;BMP_temperature;BMP_pressure;BME280_temperature;BME280_humidity;BME280_pressure;Samples;Min_cycle;Max_cycle;Signal;HPM_P1;HPM_P2
2021/09/22 04:06:18;;;;;;;;;5.50;5.50;;;;;15.53;54.74;99228.41;6084637;28;98591;-60
2021/09/22 04:09:22;;;;;;;;;7.00;6.00;;;;;15.53;54.60;99223.00;6077745;28;96777;-60
2021/09/22 04:12:27;;;;;;;;;6.60;6.60;;;;;15.55;54.83;99216.22;6080040;28;98687;-61
2021/09/22 04:15:30;;;;;;;;;9.00;8.00;;;;;15.58;54.47;99212.19;6101049;28;97498;-60
2021/09/22 04:18:33;;;;;;;;;7.00;5.50;;;;;15.58;54.30;99214.91;6093198;28;97927;-61
2021/09/22 04:21:38;;;;;;;;;8.00;7.20;;;;;15.56;54.29;99217.06;6085330;28;97129;-60
2021/09/22 04:24:42;;;;;;;;;7.00;7.00;;;;;15.58;54.15;99218.47;6090627;28;96630;-63
2021/09/22 04:27:45;;;;;;;;;10.00;7.75;;;;;15.57;54.42;99214.09;6092367;28;97519;-61
2021/09/22 04:31:09;;;;;;;;;7.50;7.00;;;;;15.56;54.40;99219.78;6087486;28;96987;-61
2021/09/22 04:34:31;;;;;;;;;10.40;8.40;;;;;15.56;54.34;99220.59;6068755;28;96896;-61
2021/09/22 04:38:11;;;;;;;;;10.00;9.00;;;;;15.56;54.51;99222.47;6093843;28;97360;-61
2021/09/22 04:41:33;;;;;;;;;9.00;8.40;;;;;15.62;54.19;99226.94;6088048;28;96614;-60
2021/09/22 04:44:55;;;;;;;;;9.00;8.00;;;;;15.50;53.98;99193.53;6089735;28;96567;-60
2021/09/22 04:48:17;;;;;;;;;9.80;7.20;;;;;15.69;54.06;99221.31;6082801;28;97546;-61
2021/09/22 04:51:39;;;;;;;;;7.00;7.00;;;;;15.71;54.00;99224.63;6086448;28;99601;-60
2021/09/22 04:55:02;;;;;;;;;9.67;8.67;;;;;15.71;54.13;99230.06;6081378;28;97439;-62
2021/09/22 04:58:24;;;;;;;;;8.00;8.00;;;;;15.59;54.02;99220.09;6077582;28;97377;-63
2021/09/22 05:01:47;;;;;;;;;8.25;7.50;;;;;15.69;53.93;99243.06;6088526;28;97177;-63
2021/09/22 05:05:10;;;;;;;;;9.00;8.00;;;;;15.72;53.88;99245.31;6089482;28;97630;-63
2021/09/22 05:08:32;;;;;;;;;6.00;5.80;;;;;15.73;53.96;99245.09;6092744;28;97452;-63
2021/09/22 05:11:55;;;;;;;;;8.00;7.00;;;;;15.72;53.99;99234.44;6089671;28;97189;-62
2021/09/22 05:15:17;;;;;;;;;7.00;7.00;;;;;15.74;53.72;99245.88;6082479;28;96822;-63
2021/09/22 05:18:39;;;;;;;;;7.50;6.50;;;;;15.73;53.63;99242.38;6090385;28;96776;-63
2021/09/22 05:22:01;;;;;;;;;8.20;7.00;;;;;15.79;53.43;99248.69;6083138;28;98088;-62
2021/09/22 05:25:30;;;;;;;;;7.00;6.60;;;;;15.73;53.54;99253.25;6088921;28;96617;-63
2021/09/22 05:28:54;;;;;;;;;10.00;9.00;;;;;15.72;53.62;99257.03;6088800;28;97445;-62
2021/09/22 05:32:15;;;;;;;;;7.40;7.00;;;;;15.69;53.68;99264.81;6084541;28;96869;-63
2021/09/22 05:35:38;;;;;;;;;9.00;8.00;;;;;15.57;54.00;99254.03;6081869;28;98026;-62
2021/09/22 05:38:59;;;;;;;;;8.00;6.00;;;;;15.57;53.84;99259.47;6091407;28;97438;-63
2021/09/22 05:42:21;;;;;;;;;9.00;8.00;;;;;15.60;54.07;99259.78;6090612;28;98342;-62
2021/09/22 05:45:46;;;;;;;;;7.00;7.00;;;;;15.57;53.90;99256.75;6088110;28;97426;-63
2021/09/22 05:49:08;;;;;;;;;8.60;8.00;;;;;15.61;53.79;99268.78;6083996;28;96730;-60
2021/09/22 05:52:30;;;;;;;;;7.20;7.20;;;;;15.61;53.75;99263.34;6091432;28;97306;-60
2021/09/22 05:55:54;;;;;;;;;10.00;8.40;;;;;15.62;53.86;99262.28;6091540;28;97285;-62
2021/09/22 05:59:15;;;;;;;;;8.00;7.60;;;;;15.68;53.83;99263.19;6089625;28;97537;-62
2021/09/22 06:02:38;;;;;;;;;7.00;7.00;;;;;15.69;53.68;99275.69;6098680;28;98285;-63
2021/09/22 06:06:00;;;;;;;;;8.00;8.00;;;;;15.75;53.64;99274.72;6067134;28;97555;-63
2021/09/22 06:09:24;;;;;;;;;11.00;10.00;;;;;15.58;53.65;99236.66;6089545;28;96780;-62
2021/09/22 06:12:47;;;;;;;;;9.00;7.00;;;;;15.81;53.66;99260.16;6090897;28;97203;-63
2021/09/22 06:15:52;;;;;;;;;8.60;7.60;;;;;15.84;53.45;99268.63;6092393;28;98956;-61
2021/09/22 06:19:05;;;;;;;;;9.00;8.60;;;;;15.93;53.66;99267.13;6100502;28;96835;-63
2021/09/22 06:22:08;;;;;;;;;9.60;9.00;;;;;15.92;53.54;99262.81;6097580;28;97552;-62
2021/09/22 06:25:17;;;;;;;;;9.50;9.00;;;;;15.88;53.55;99264.34;6092996;28;96624;-61
2021/09/22 06:28:20;;;;;;;;;8.00;8.00;;;;;15.98;53.43;99274.56;6088660;28;97561;-61
2021/09/22 06:31:23;;;;;;;;;9.80;9.00;;;;;16.04;53.32;99277.13;6100857;28;97464;-60
2021/09/22 06:34:42;;;;;;;;;10.20;9.00;;;;;16.02;53.55;99276.56;6089789;28;96884;-62
2021/09/22 06:37:49;;;;;;;;;10.20;9.20;;;;;16.02;53.32;99278.44;6092155;28;97496;-61
2021/09/22 06:40:56;;;;;;;;;10.00;9.40;;;;;16.05;53.28;99286.09;6087976;28;96660;-61
2021/09/22 06:44:02;;;;;;;;;10.00;8.75;;;;;16.04;53.60;99288.00;6093761;28;97129;-63
2021/09/22 06:47:08;;;;;;;;;11.00;9.80;;;;;16.15;53.51;99288.16;6078499;28;97128;-61
2021/09/22 06:50:13;;;;;;;;;9.00;9.00;;;;;16.16;53.13;99279.75;6090749;28;96436;-61
2021/09/22 06:53:16;;;;;;;;;11.00;10.00;;;;;15.90;52.76;99245.06;6097256;28;97346;-61
2021/09/22 06:56:21;;;;;;;;;10.40;8.40;;;;;16.19;53.24;99279.25;6101603;28;96896;-63
2021/09/22 06:59:24;;;;;;;;;9.25;8.25;;;;;16.17;52.92;99286.03;6076012;28;97856;-62
2021/09/22 07:02:27;;;;;;;;;10.00;9.00;;;;;16.17;52.92;99289.59;6082961;28;97679;-61
2021/09/22 07:05:33;;;;;;;;;11.40;9.00;;;;;16.16;52.93;99285.22;6102186;28;98249;-62
2021/09/22 07:08:36;;;;;;;;;10.00;9.00;;;;;16.14;53.00;99289.22;6089772;28;97572;-61
2021/09/22 07:11:40;;;;;;;;;8.40;8.00;;;;;16.19;53.05;99294.75;6098171;28;97331;-62
2021/09/22 07:14:44;;;;;;;;;11.00;10.00;;;;;16.20;53.25;99293.69;6070664;28;96643;-60
2021/09/22 07:17:47;;;;;;;;;9.60;9.40;;;;;16.20;53.25;99296.41;6107663;28;97360;-60
2021/09/22 07:20:52;;;;;;;;;10.40;9.40;;;;;16.19;53.16;99298.31;6097120;28;96724;-61
2021/09/22 07:23:55;;;;;;;;;10.00;10.00;;;;;16.19;52.99;99302.91;6094086;28;98006;-61
2021/09/22 07:26:58;;;;;;;;;10.00;9.00;;;;;16.26;53.04;99307.13;6088591;28;99500;-61
2021/09/22 07:30:02;;;;;;;;;10.25;9.00;;;;;16.29;53.01;99305.78;6094448;28;97490;-62
2021/09/22 07:33:06;;;;;;;;;10.20;9.20;;;;;16.34;53.07;99303.97;6087735;28;99270;-61
2021/09/22 07:36:11;;;;;;;;;10.00;9.00;;;;;16.36;52.80;99306.47;6092716;28;97318;-63
2021/09/22 07:39:15;;;;;;;;;11.60;11.00;;;;;16.43;52.69;99310.66;6085717;28;96606;-61
2021/09/22 07:42:21;;;;;;;;;9.25;9.25;;;;;16.53;52.95;99314.59;6091033;28;96659;-61
2021/09/22 07:45:26;;;;;;;;;11.00;11.00;;;;;16.57;53.05;99315.72;6098111;28;97014;-62
2021/09/22 07:48:29;;;;;;;;;10.00;9.00;;;;;16.61;53.07;99327.81;6087725;28;97530;-62
2021/09/22 07:51:34;;;;;;;;;11.75;10.75;;;;;16.70;53.45;99324.44;6105613;28;97478;-62
2021/09/22 07:54:37;;;;;;;;;10.25;9.75;;;;;16.63;53.05;99321.03;6094601;28;97367;-61
2021/09/22 07:57:41;;;;;;;;;11.00;11.00;;;;;16.69;53.27;99327.38;6089639;28;96684;-61
2021/09/22 08:00:44;;;;;;;;;11.50;11.50;;;;;16.69;53.34;99344.56;6085513;28;96761;-62
2021/09/22 08:03:47;;;;;;;;;10.00;9.50;;;;;16.66;53.44;99347.78;6090907;28;96713;-62
2021/09/22 08:06:56;;;;;;;;;10.00;10.00;;;;;16.71;53.72;99352.47;6089594;28;96598;-61
2021/09/22 08:09:59;;;;;;;;;7.80;7.80;;;;;16.70;53.41;99357.09;6093865;28;97525;-63
2021/09/22 08:13:03;;;;;;;;;10.00;10.00;;;;;16.74;53.20;99358.25;6093751;28;96822;-62
2021/09/22 08:16:06;;;;;;;;;7.00;7.00;;;;;16.73;52.07;99353.03;6088847;28;97523;-61
2021/09/22 08:19:10;;;;;;;;;8.00;8.00;;;;;16.79;51.60;99358.31;6100732;28;97009;-61
2021/09/22 08:22:14;;;;;;;;;8.00;7.00;;;;;16.82;51.95;99365.97;6104233;28;97722;-61
2021/09/22 08:25:19;;;;;;;;;10.00;9.00;;;;;16.88;50.93;99356.81;6091847;28;96949;-60
2021/09/22 08:28:22;;;;;;;;;8.00;7.00;;;;;16.93;50.64;99364.22;6094374;28;97534;-61
2021/09/22 08:31:26;;;;;;;;;8.40;7.00;;;;;16.94;51.50;99362.31;6083532;28;100320;-62
2021/09/22 08:34:29;;;;;;;;;9.00;7.80;;;;;17.02;50.38;99353.72;6090710;28;97405;-62
2021/09/22 08:37:34;;;;;;;;;7.00;7.00;;;;;17.00;50.50;99342.25;6078097;28;96591;-60
2021/09/22 08:40:38;;;;;;;;;8.40;6.40;;;;;17.24;50.29;99358.13;6084438;28;98038;-61
2021/09/22 08:43:43;;;;;;;;;7.00;6.00;;;;;17.33;49.84;99364.75;6103506;28;96503;-62
2021/09/22 08:46:47;;;;;;;;;9.00;7.00;;;;;17.48;50.19;99368.75;6078220;28;96642;-61
2021/09/22 08:49:50;;;;;;;;;7.00;6.00;;;;;17.67;49.37;99365.47;6088127;28;97395;-61
2021/09/22 08:52:55;;;;;;;;;8.00;8.00;;;;;17.96;49.26;99370.66;6094411;28;96650;-59
2021/09/22 08:55:58;;;;;;;;;8.00;8.00;;;;;18.18;49.32;99374.13;6102844;28;97517;-60
2021/09/22 08:59:01;;;;;;;;;9.00;8.00;;;;;18.38;49.07;99368.03;6082106;28;97806;-60
2021/09/22 09:02:07;;;;;;;;;6.25;6.00;;;;;18.64;48.42;99367.19;6094497;28;97335;-60
2021/09/22 09:05:14;;;;;;;;;9.00;8.60;;;;;18.92;48.10;99366.81;6085842;28;97429;-62
2021/09/22 09:08:18;;;;;;;;;9.00;9.00;;;;;19.21;46.29;99353.56;6088778;28;97642;-61
2021/09/22 09:11:28;;;;;;;;;10.00;9.00;;;;;19.40;45.91;99365.66;6101570;28;97527;-62
2021/09/22 09:14:34;;;;;;;;;10.00;9.00;;;;;19.41;45.56;99371.97;6087109;28;97434;-60
2021/09/22 09:17:41;;;;;;;;;9.00;8.40;;;;;19.32;45.03;99373.56;6105475;28;97090;-60
2021/09/22 09:20:48;;;;;;;;;7.50;7.50;;;;;19.22;45.71;99384.47;6086457;28;97015;-62
2021/09/22 09:23:55;;;;;;;;;10.33;9.00;;;;;19.16;45.96;99380.88;6099533;28;97166;-62
2021/09/22 09:26:58;;;;;;;;;11.00;11.00;;;;;19.10;45.92;99368.28;6091539;28;97093;-60
2021/09/22 09:30:16;;;;;;;;;10.40;9.00;;;;;19.07;46.14;99367.97;6094636;28;96627;-62
2021/09/22 09:33:47;;;;;;;;;10.00;9.00;;;;;19.02;46.33;99368.78;6096567;28;97307;-62
2021/09/22 09:36:50;;;;;;;;;9.00;8.00;;;;;19.03;46.12;99365.78;6067263;28;97841;-62
2021/09/22 09:39:58;;;;;;;;;8.00;8.00;;;;;19.05;46.31;99362.78;6078718;28;97481;-62
2021/09/22 09:43:04;;;;;;;;;10.00;8.00;;;;;19.05;46.13;99362.78;6091286;28;97331;-61
2021/09/22 09:46:07;;;;;;;;;7.00;6.00;;;;;19.07;45.79;99366.06;6091872;28;98565;-61
2021/09/22 09:49:12;;;;;;;;;9.00;9.00;;;;;19.12;46.36;99371.56;6077371;28;96746;-61
2021/09/22 09:52:25;;;;;;;;;7.20;6.20;;;;;19.17;44.97;99351.63;6090520;28;97454;-60
2021/09/22 09:55:41;;;;;;;;;8.60;8.00;;;;;19.13;44.70;99364.19;6089564;28;96439;-60
2021/09/22 09:58:48;;;;;;;;;9.00;8.00;;;;;19.20;45.57;99375.72;6077032;28;96753;-61
2021/09/22 10:01:56;;;;;;;;;9.00;8.00;;;;;19.17;45.74;99370.75;6093900;28;96719;-63
2021/09/22 10:05:01;;;;;;;;;8.00;7.00;;;;;19.08;44.71;99373.19;6092114;28;97930;-63
2021/09/22 10:08:05;;;;;;;;;9.00;7.00;;;;;19.07;44.75;99373.44;6096369;28;97351;-61
2021/09/22 10:11:10;;;;;;;;;10.00;9.60;;;;;19.05;44.98;99373.72;6097531;28;97255;-61
2021/09/22 10:14:16;;;;;;;;;7.67;7.00;;;;;18.97;44.75;99369.56;6083053;28;97036;-62
2021/09/22 10:17:23;;;;;;;;;9.00;7.67;;;;;18.94;44.99;99367.38;6094512;28;97142;-62
2021/09/22 10:20:27;;;;;;;;;9.00;8.00;;;;;18.88;44.78;99370.34;6087461;28;96801;-63
2021/09/22 10:23:52;;;;;;;;;8.00;7.60;;;;;18.88;44.53;99368.44;6287966;27;97605;-64
2021/09/22 10:27:07;;;;;;;;;8.60;8.00;;;;;18.84;45.06;99375.50;6320080;27;1468866;-62
2021/09/22 10:30:32;;;;;;;;;10.25;8.25;;;;;18.87;44.88;99361.31;6275531;27;98103;-62
2021/09/22 10:33:48;;;;;;;;;9.00;9.00;;;;;18.52;44.48;99322.84;6254034;27;96959;-61
2021/09/22 10:37:04;;;;;;;;;10.00;8.60;;;;;18.94;44.56;99369.28;6273716;27;96212;-61
2021/09/22 10:40:20;;;;;;;;;8.20;8.00;;;;;18.91;44.58;99365.16;6262172;27;96833;-59
2021/09/22 10:43:40;;;;;;;;;8.00;8.00;;;;;18.91;45.07;99364.34;6276813;27;96110;-60
2021/09/22 10:47:23;;;;;;;;;9.00;9.00;;;;;18.89;44.18;99375.53;6279664;27;96409;-62
2021/09/22 10:50:50;;;;;;;;;8.00;7.75;;;;;18.97;44.96;99366.00;6261010;27;96321;-62
2021/09/22 10:54:09;;;;;;;;;9.00;8.00;;;;;18.98;44.88;99375.88;6255378;27;96543;-62
2021/09/22 10:57:28;;;;;;;;;10.00;9.20;;;;;18.99;45.35;99372.88;6274294;27;97559;-60
2021/09/22 11:00:42;;;;;;;;;9.00;9.00;;;;;18.91;44.22;99373.34;6253403;27;96582;-62
2021/09/22 11:03:59;;;;;;;;;8.00;8.00;;;;;18.93;44.20;99373.09;6279352;27;96959;-60
2021/09/22 11:14:52;;;;;;;;;9.00;8.00;;;;;18.95;43.59;99373.66;6175110;28;96871;-62
2021/09/22 11:18:08;;;;;;;;;11.20;9.00;;;;;18.91;44.14;99373.34;6270216;27;96737;-62
2021/09/22 11:21:24;;;;;;;;;9.60;8.00;;;;;18.93;44.08;99378.56;6253679;27;96378;-61
2021/09/22 11:24:41;;;;;;;;;7.80;7.20;;;;;18.74;43.03;99360.97;6254571;27;96716;-63
2021/09/22 11:28:04;;;;;;;;;7.00;6.40;;;;;18.83;44.06;99367.56;6263321;27;96294;-60
2021/09/22 11:31:21;;;;;;;;;8.00;8.00;;;;;18.81;44.46;99370.59;6270859;27;96286;-62
2021/09/22 11:34:39;;;;;;;;;10.00;9.00;;;;;18.80;44.03;99360.75;6254351;27;96705;-63
2021/09/22 11:37:56;;;;;;;;;9.00;8.00;;;;;18.76;43.33;99365.09;6260053;27;96470;-61
2021/09/22 11:41:11;;;;;;;;;9.60;8.00;;;;;18.66;44.25;99345.91;6265778;27;96293;-61
2021/09/22 11:44:28;;;;;;;;;8.50;8.50;;;;;18.83;43.73;99364.84;6272236;27;97414;-62
2021/09/22 11:47:47;;;;;;;;;7.00;7.00;;;;;19.00;44.33;99380.00;6279156;27;96351;-63
2021/09/22 11:51:05;;;;;;;;;7.40;7.00;;;;;19.00;43.87;99373.69;6277352;27;96635;-62
2021/09/22 11:54:20;;;;;;;;;6.00;6.00;;;;;19.01;42.82;99369.84;6265825;27;96105;-61
2021/09/22 11:57:37;;;;;;;;;8.00;6.40;;;;;19.17;43.12;99371.59;6277164;27;96710;-61
2021/09/22 12:00:54;;;;;;;;;8.00;7.00;;;;;19.22;42.83;99381.72;6276082;27;96433;-61
2021/09/22 12:04:09;;;;;;;;;8.00;7.00;;;;;19.28;42.87;99380.66;6261785;27;96518;-62
2021/09/22 12:07:31;;;;;;;;;8.50;7.00;;;;;19.22;42.40;99387.19;6279103;27;96411;-61
2021/09/22 12:10:46;;;;;;;;;7.60;6.00;;;;;19.30;42.17;99375.78;6266166;27;96371;-62
2021/09/22 12:14:01;;;;;;;;;7.50;7.00;;;;;19.38;42.33;99378.81;6277209;27;96336;-63
2021/09/22 12:17:19;;;;;;;;;7.00;7.00;;;;;19.35;42.39;99384.00;6282373;27;96271;-61
2021/09/22 12:20:37;;;;;;;;;6.00;5.00;;;;;19.27;42.87;99387.22;6271436;27;96615;-63
2021/09/22 12:23:51;;;;;;;;;8.00;7.20;;;;;19.23;42.78;99391.56;6275200;27;96336;-61
2021/09/22 12:27:12;;;;;;;;;8.00;7.00;;;;;19.14;43.31;99383.06;6259307;27;96076;-62
2021/09/22 12:30:33;;;;;;;;;7.00;6.00;;;;;19.10;43.56;99390.16;6259722;27;96963;-61
2021/09/22 12:33:49;;;;;;;;;8.00;7.00;;;;;19.12;43.64;99393.44;6278363;27;96294;-63
2021/09/22 12:37:04;;;;;;;;;8.50;8.00;;;;;19.13;43.34;99395.09;6270122;27;96551;-63
2021/09/22 12:40:27;;;;;;;;;8.00;6.60;;;;;19.18;43.44;99391.56;6256425;27;96731;-61
2021/09/22 12:43:42;;;;;;;;;7.00;6.00;;;;;19.32;42.78;99398.19;6283276;27;96903;-59
2021/09/22 12:46:57;;;;;;;;;7.00;7.00;;;;;19.36;42.06;99388.34;6260178;27;98057;-62
2021/09/22 12:50:16;;;;;;;;;7.00;6.40;;;;;19.35;41.94;99368.38;6266366;27;96766;-63
2021/09/22 12:53:32;;;;;;;;;7.00;6.20;;;;;19.60;42.04;99394.22;6239028;27;96407;-62
2021/09/22 12:57:14;;;;;;;;;6.00;6.00;;;;;19.71;40.94;99398.63;6240275;27;96808;-63
2021/09/22 13:00:38;;;;;;;;;7.00;7.00;;;;;19.81;40.65;99395.94;6276731;27;96218;-62
2021/09/22 13:03:58;;;;;;;;;7.00;6.25;;;;;19.94;41.33;99398.16;6276398;27;96419;-62
2021/09/22 13:07:21;;;;;;;;;6.80;6.20;;;;;20.04;40.94;99392.69;6280339;27;96416;-62
2021/09/22 13:11:00;;;;;;;;;7.00;7.00;;;;;20.21;40.49;99398.75;6282104;27;1377868;-64
2021/09/22 13:14:16;;;;;;;;;6.00;6.00;;;;;20.33;40.42;99387.56;6321317;27;1382715;-61
2021/09/22 13:17:32;;;;;;;;;7.00;6.20;;;;;20.50;40.34;99392.78;6269375;27;96383;-62
2021/09/22 13:20:47;;;;;;;;;8.00;7.00;;;;;20.55;39.87;99396.34;6266558;27;96454;-62
2021/09/22 13:24:05;;;;;;;;;7.00;7.00;;;;;20.74;39.47;99410.31;6281849;27;96545;-63
2021/09/22 13:27:21;;;;;;;;;7.00;6.50;;;;;20.73;39.18;99405.91;6317518;27;1387470;-63
2021/09/22 13:30:37;;;;;;;;;7.00;7.00;;;;;20.69;38.73;99411.13;6262496;27;96332;-62
2021/09/22 13:33:52;;;;;;;;;8.00;7.00;;;;;20.66;38.60;99402.66;6256012;27;96594;-62
2021/09/22 13:37:07;;;;;;;;;6.20;5.20;;;;;20.61;39.10;99408.94;6266653;27;96786;-64
2021/09/22 13:40:23;;;;;;;;;6.40;6.00;;;;;20.48;38.87;99425.09;6262361;27;96364;-64
2021/09/22 13:43:38;;;;;;;;;9.00;7.00;;;;;20.36;39.70;99414.41;6267366;27;96903;-63
2021/09/22 13:46:53;;;;;;;;;8.40;7.40;;;;;20.30;40.44;99413.59;6256989;27;96359;-63
2021/09/22 13:50:09;;;;;;;;;9.00;9.00;;;;;20.24;40.46;99411.91;6240288;27;96520;-61
2021/09/22 13:53:23;;;;;;;;;7.00;6.80;;;;;20.19;41.34;99406.41;6267100;27;96537;-61
2021/09/22 13:56:38;;;;;;;;;7.20;7.20;;;;;20.05;40.25;99399.00;6267279;27;97311;-64
2021/09/22 13:59:53;;;;;;;;;5.40;5.40;;;;;20.12;39.83;99405.03;6282660;27;96797;-62
2021/09/22 14:03:09;;;;;;;;;6.00;6.00;;;;;20.18;39.87;99402.03;6257984;27;96178;-61
2021/09/22 14:06:25;;;;;;;;;8.00;8.00;;;;;20.31;38.98;99404.28;6271105;27;96712;-64
2021/09/22 14:09:40;;;;;;;;;5.00;5.00;;;;;20.54;38.29;99413.88;6273121;27;96427;-63
2021/09/22 14:12:59;;;;;;;;;7.75;6.00;;;;;20.88;38.27;99405.91;6269999;27;96368;-61
2021/09/22 14:16:15;;;;;;;;;5.40;5.00;;;;;21.07;38.18;99408.88;6279247;27;96121;-65
2021/09/22 14:19:30;;;;;;;;;6.00;5.40;;;;;21.04;37.36;99410.25;6285100;27;96178;-64
2021/09/22 14:22:44;;;;;;;;;6.60;5.60;;;;;21.00;37.69;99409.19;6284088;27;96781;-63
2021/09/22 14:26:02;;;;;;;;;6.40;6.00;;;;;20.93;37.94;99399.59;6309728;27;96214;-62
2021/09/22 14:29:18;;;;;;;;;6.00;6.00;;;;;20.80;36.64;99402.91;6258740;27;96735;-62
2021/09/22 14:32:34;;;;;;;;;7.00;6.00;;;;;20.73;36.72;99403.19;6283985;27;96179;-62
2021/09/22 14:35:49;;;;;;;;;9.00;7.00;;;;;20.65;37.10;99410.03;6284090;27;96745;-62
2021/09/22 14:39:04;;;;;;;;;6.00;6.00;;;;;20.54;37.29;99400.19;6278511;27;96368;-63
2021/09/22 14:42:19;;;;;;;;;6.00;5.00;;;;;20.48;37.88;99404.00;6283329;27;96487;-62
2021/09/22 14:45:37;;;;;;;;;7.00;6.25;;;;;20.44;38.26;99397.44;6284931;27;96240;-62
2021/09/22 14:48:52;;;;;;;;;6.50;6.50;;;;;20.35;38.50;99396.34;6285267;27;96377;-62
2021/09/22 14:52:08;;;;;;;;;7.00;7.00;;;;;20.27;37.75;99396.84;6285180;27;96999;-63
2021/09/22 14:55:23;;;;;;;;;5.60;5.60;;;;;20.14;37.96;99397.38;6285469;27;96361;-63
2021/09/22 14:58:38;;;;;;;;;7.00;6.00;;;;;20.00;38.27;99407.19;6259977;27;96302;-63
2021/09/22 15:01:53;;;;;;;;;7.00;6.00;;;;;19.82;39.17;99403.88;6285291;27;96532;-62
2021/09/22 15:05:10;;;;;;;;;6.00;5.00;;;;;19.80;39.71;99403.31;6285404;27;96725;-61
2021/09/22 15:08:24;;;;;;;;;7.00;7.00;;;;;19.75;39.93;99408.78;6285033;27;96337;-62
2021/09/22 15:11:42;;;;;;;;;7.33;7.00;;;;;19.64;40.09;99406.28;6285419;27;96672;-62
2021/09/22 15:14:57;;;;;;;;;6.00;6.00;;;;;19.59;40.04;99398.06;6285230;27;96451;-63
2021/09/22 15:18:12;;;;;;;;;6.60;6.60;;;;;19.54;40.19;99409.00;6285027;27;96260;-63
2021/09/22 15:21:27;;;;;;;;;7.20;7.00;;;;;19.45;40.47;99406.75;6285053;27;96597;-62
2021/09/22 15:24:42;;;;;;;;;7.20;7.00;;;;;19.38;40.73;99410.78;6283987;27;96276;-63
2021/09/22 15:27:58;;;;;;;;;7.00;6.00;;;;;19.32;40.68;99407.22;6261385;27;96198;-65
2021/09/22 15:31:12;;;;;;;;;6.40;6.00;;;;;19.20;40.95;99411.25;6285842;27;96274;-63
2021/09/22 15:34:27;;;;;;;;;9.00;7.00;;;;;19.14;41.78;99413.13;6285357;27;96918;-61
2021/09/22 15:37:44;;;;;;;;;8.00;8.00;;;;;19.09;41.91;99410.38;6286017;27;96356;-62
2021/09/22 15:41:00;;;;;;;;;7.00;7.00;;;;;19.00;41.99;99420.16;6276882;27;97037;-64
2021/09/22 15:44:15;;;;;;;;;8.00;8.00;;;;;18.94;42.39;99411.09;6288611;27;96197;-63
2021/09/22 15:47:30;;;;;;;;;9.00;7.80;;;;;18.90;42.69;99412.72;6296653;27;96814;-63
2021/09/22 15:50:46;;;;;;;;;8.20;7.20;;;;;18.76;43.23;99407.97;6271048;27;96164;-62
2021/09/22 15:54:01;;;;;;;;;10.00;9.00;;;;;18.74;42.96;99419.16;6284319;27;96252;-63
2021/09/22 15:57:16;;;;;;;;;10.00;9.00;;;;;18.64;43.49;99405.41;6285101;27;97088;-62
2021/09/22 16:00:33;;;;;;;;;7.40;7.40;;;;;18.58;44.03;99401.81;6285207;27;96502;-62
2021/09/22 16:03:49;;;;;;;;;8.40;8.00;;;;;18.62;44.12;99412.22;6284705;27;96184;-63
2021/09/22 16:07:05;;;;;;;;;9.00;8.00;;;;;18.54;44.15;99421.72;6283997;27;96459;-62
2021/09/22 16:10:21;;;;;;;;;10.00;9.20;;;;;18.49;44.65;99430.66;6285356;27;97010;-63
2021/09/22 16:13:35;;;;;;;;;9.80;9.00;;;;;18.44;44.66;99422.41;6260904;27;96422;-62
2021/09/22 16:16:51;;;;;;;;;10.00;9.75;;;;;18.45;44.73;99421.34;6284190;27;96411;-64
2021/09/22 16:20:07;;;;;;;;;9.25;9.00;;;;;18.46;45.04;99414.81;6285749;27;96245;-64
2021/09/22 16:23:22;;;;;;;;;13.00;11.20;;;;;18.48;45.23;99422.72;6285110;27;96984;-62
2021/09/22 16:26:37;;;;;;;;;11.00;10.20;;;;;18.47;45.40;99416.44;6285442;27;96168;-62
2021/09/22 16:29:52;;;;;;;;;12.00;9.25;;;;;18.45;45.62;99418.63;6285466;27;96580;-63
2021/09/22 16:33:07;;;;;;;;;10.25;9.00;;;;;18.45;45.62;99412.31;6285147;27;96361;-61
2021/09/22 16:36:22;;;;;;;;;11.00;10.50;;;;;18.38;45.60;99411.69;6284809;27;96396;-63
2021/09/22 16:39:37;;;;;;;;;12.00;11.00;;;;;18.34;45.75;99405.94;6284695;27;96762;-63
2021/09/22 16:42:52;;;;;;;;;11.60;10.60;;;;;18.34;45.88;99413.31;6287004;27;96424;-64
2021/09/22 16:46:07;;;;;;;;;11.20;9.80;;;;;18.32;46.05;99419.03;6286142;27;96720;-64
2021/09/22 16:49:22;;;;;;;;;11.25;10.75;;;;;18.27;46.05;99412.72;6285453;27;96403;-63
2021/09/22 16:52:37;;;;;;;;;12.00;11.00;;;;;18.21;46.42;99409.09;6286274;27;96789;-62
2021/09/22 16:55:55;;;;;;;;;13.00;11.25;;;;;18.18;46.71;99413.16;6286391;27;96103;-63
2021/09/22 16:59:11;;;;;;;;;12.50;12.00;;;;;18.00;47.46;99383.53;6286823;27;96202;-62
2021/09/22 17:02:25;;;;;;;;;11.60;11.00;;;;;18.17;47.73;99416.16;6285695;27;96504;-62
2021/09/22 17:05:45;;;;;;;;;15.00;12.40;;;;;18.15;47.86;99419.16;6286299;27;96666;-62
2021/09/22 17:19:24;;;;;;;;;14.40;13.00;;;;;18.04;48.10;99425.56;6260108;27;96779;-62
2021/09/22 17:22:39;;;;;;;;;12.20;11.80;;;;;18.02;48.58;99424.19;6286491;27;96760;-62
2021/09/22 17:25:53;;;;;;;;;14.20;12.80;;;;;17.96;48.78;99428.78;6284899;27;96189;-63
2021/09/22 17:29:08;;;;;;;;;14.25;13.00;;;;;17.90;48.62;99424.34;6286080;27;96118;-64
2021/09/22 17:32:25;;;;;;;;;14.00;13.00;;;;;17.90;49.04;99427.06;6286530;27;96170;-62
2021/09/22 17:35:40;;;;;;;;;12.00;11.00;;;;;17.88;49.09;99429.25;6285197;27;96049;-63
2021/09/22 17:38:55;;;;;;;;;15.80;14.00;;;;;17.84;49.08;99419.91;6284903;27;96171;-62
2021/09/22 17:42:11;;;;;;;;;14.20;14.00;;;;;17.84;49.02;99424.56;6285122;27;96372;-62
2021/09/22 17:45:27;;;;;;;;;16.50;15.50;;;;;17.81;48.92;99428.59;6287161;27;96620;-63
2021/09/22 17:48:41;;;;;;;;;16.40;15.40;;;;;17.74;49.40;99417.06;6286596;27;96396;-62
2021/09/22 17:51:57;;;;;;;;;16.00;14.60;;;;;17.74;49.25;99419.78;6285766;27;96733;-61
2021/09/22 17:55:12;;;;;;;;;19.00;17.00;;;;;17.76;49.11;99428.53;6338375;27;1378281;-61
2021/09/22 17:58:26;;;;;;;;;18.00;17.00;;;;;17.73;49.13;99432.63;6275496;27;96309;-63
2021/09/22 18:01:42;;;;;;;;;17.50;15.75;;;;;17.76;49.00;99425.81;6283888;27;96356;-62
2021/09/22 18:04:59;;;;;;;;;19.00;16.75;;;;;17.76;49.05;99434.00;6284096;27;96360;-62
2021/09/22 18:08:13;;;;;;;;;18.75;16.00;;;;;17.78;49.70;99423.66;6275681;27;96645;-62
2021/09/22 18:11:18;;;;;;;;;18.00;16.00;;;;;17.79;49.57;99419.03;6249233;27;99365;-62
2021/09/22 18:14:21;;;;;;;;;20.75;18.75;;;;;17.75;49.42;99414.09;6248573;27;96611;-59
2021/09/22 18:17:25;;;;;;;;;19.00;16.60;;;;;17.70;50.10;99418.66;6223202;27;97330;-59
2021/09/22 18:20:28;;;;;;;;;18.80;17.00;;;;;17.66;50.15;99410.16;6219926;28;97062;-61
2021/09/22 18:23:33;;;;;;;;;22.00;19.00;;;;;17.67;50.03;99411.00;6223196;27;96800;-62
2021/09/22 18:26:39;;;;;;;;;22.00;19.20;;;;;17.67;50.08;99411.00;6210496;28;97105;-61
2021/09/22 18:29:43;;;;;;;;;22.00;20.00;;;;;17.64;50.33;99414.25;6207019;28;96744;-61
2021/09/22 18:32:47;;;;;;;;;21.80;19.00;;;;;17.64;50.31;99414.25;6218841;28;97382;-62
2021/09/22 18:35:52;;;;;;;;;22.00;20.00;;;;;17.61;50.20;99420.19;6214861;28;97415;-61
2021/09/22 18:38:57;;;;;;;;;25.50;22.75;;;;;17.63;50.06;99415.31;6216585;28;98857;-62
2021/09/22 18:42:04;;;;;;;;;23.20;21.00;;;;;17.60;49.95;99418.53;6213425;28;97680;-61
2021/09/22 18:45:08;;;;;;;;;24.00;22.00;;;;;17.54;50.13;99412.19;6208272;28;97501;-62
2021/09/22 18:48:12;;;;;;;;;26.25;23.25;;;;;17.59;49.81;99408.72;6212312;27;96924;-61
2021/09/22 18:51:17;;;;;;;;;29.40;24.00;;;;;17.57;49.38;99410.84;6213717;28;96669;-59
2021/09/22 18:54:22;;;;;;;;;26.00;24.40;;;;;17.54;49.50;99404.00;6198913;28;98947;-60
2021/09/22 18:57:25;;;;;;;;;25.20;23.20;;;;;17.55;49.27;99410.25;6212252;28;97885;-61
2021/09/22 19:00:29;;;;;;;;;25.00;22.00;;;;;17.59;49.34;99403.28;6204089;28;97572;-61
2021/09/22 19:03:32;;;;;;;;;25.20;23.00;;;;;17.59;49.54;99400.53;6213165;28;97360;-62
2021/09/22 19:06:36;;;;;;;;;24.20;22.80;;;;;17.59;49.67;99404.06;6216504;28;96904;-61
2021/09/22 19:09:42;;;;;;;;;26.00;23.25;;;;;17.55;50.22;99392.00;6220607;28;97495;-62
2021/09/22 19:12:45;;;;;;;;;25.60;23.00;;;;;17.48;50.17;99385.09;6207761;27;97249;-62
2021/09/22 19:15:50;;;;;;;;;30.00;28.00;;;;;17.50;50.33;99391.94;6218307;27;97540;-62
2021/09/22 19:18:54;;;;;;;;;28.60;24.60;;;;;17.51;50.28;99396.31;6194130;28;97991;-60
2021/09/22 19:21:58;;;;;;;;;27.50;25.25;;;;;17.49;50.30;99392.22;6190039;28;97018;-61
2021/09/22 19:25:03;;;;;;;;;28.60;26.20;;;;;17.39;50.46;99394.81;6195176;28;97500;-63